sensor_id;sensor_type;location;lat;lon;timestamp;P1;durP1;ratioP1;P2;durP2;ratioP2
46651;SDS011;32377;52.182;5.398;2024-02-26T00:01:47;8.80;;;5.38;;
46651;SDS011;32377;52.182;5.398;2024-02-26T00:04:13;7.85;;;5.75;;
46651;SDS011;32377;52.182;5.398;2024-02-26T00:06:38;8.07;;;5.80;;
46651;SDS011;32377;52.182;5.398;2024-02-26T00:09:10;9.80;;;5.82;;
46651;SDS011;32377;52.182;5.398;2024-02-26T00:11:35;7.53;;;5.72;;
46651;SDS011;32377;52.182;5.398;2024-02-26T00:14:01;7.50;;;5.40;;
46651;SDS011;32377;52.182;5.398;2024-02-26T00:16:27;9.88;;;6.00;;
46651;SDS011;32377;52.182;5.398;2024-02-26T00:18:53;12.20;;;6.45;;
46651;SDS011;32377;52.182;5.398;2024-02-26T00:21:18;8.50;;;6.05;;
46651;SDS011;32377;52.182;5.398;2024-02-26T00:23:44;9.38;;;6.15;;
46651;SDS011;32377;52.182;5.398;2024-02-26T00:26:09;11.35;;;6.57;;
46651;SDS011;32377;52.182;5.398;2024-02-26T00:28:36;8.00;;;6.47;;
46651;SDS011;32377;52.182;5.398;2024-02-26T00:31:01;9.75;;;6.90;;
46651;SDS011;32377;52.182;5.398;2024-02-26T00:33:27;10.02;;;6.55;;
46651;SDS011;32377;52.182;5.398;2024-02-26T00:35:53;8.27;;;6.38;;
46651;SDS011;32377;52.182;5.398;2024-02-26T00:38:19;7.55;;;6.22;;
46651;SDS011;32377;52.182;5.398;2024-02-26T00:40:44;11.32;;;7.35;;
46651;SDS011;32377;52.182;5.398;2024-02-26T00:43:10;10.10;;;7.28;;
46651;SDS011;32377;52.182;5.398;2024-02-26T00:45:35;11.10;;;7.43;;
46651;SDS011;32377;52.182;5.398;2024-02-26T00:48:01;9.65;;;7.07;;
46651;SDS011;32377;52.182;5.398;2024-02-26T00:50:30;8.82;;;7.30;;
46651;SDS011;32377;52.182;5.398;2024-02-26T00:52:56;9.63;;;6.90;;
46651;SDS011;32377;52.182;5.398;2024-02-26T00:55:22;10.25;;;7.55;;
46651;SDS011;32377;52.182;5.398;2024-02-26T00:57:47;10.80;;;7.32;;
46651;SDS011;32377;52.182;5.398;2024-02-26T01:00:13;12.68;;;7.82;;
46651;SDS011;32377;52.182;5.398;2024-02-26T01:02:39;8.68;;;7.22;;
46651;SDS011;32377;52.182;5.398;2024-02-26T01:05:06;9.95;;;7.65;;
46651;SDS011;32377;52.182;5.398;2024-02-26T01:07:34;14.07;;;8.00;;
46651;SDS011;32377;52.182;5.398;2024-02-26T01:10:03;11.00;;;7.95;;
46651;SDS011;32377;52.182;5.398;2024-02-26T01:12:30;9.80;;;7.80;;
46651;SDS011;32377;52.182;5.398;2024-02-26T01:14:57;10.52;;;7.85;;
46651;SDS011;32377;52.182;5.398;2024-02-26T01:17:22;13.38;;;8.00;;
46651;SDS011;32377;52.182;5.398;2024-02-26T01:19:48;11.15;;;7.80;;
46651;SDS011;32377;52.182;5.398;2024-02-26T01:22:14;10.77;;;7.85;;
46651;SDS011;32377;52.182;5.398;2024-02-26T01:24:39;11.88;;;8.25;;
46651;SDS011;32377;52.182;5.398;2024-02-26T01:27:05;9.65;;;7.18;;
46651;SDS011;32377;52.182;5.398;2024-02-26T01:29:32;11.65;;;8.13;;
46651;SDS011;32377;52.182;5.398;2024-02-26T01:31:58;10.95;;;8.10;;
46651;SDS011;32377;52.182;5.398;2024-02-26T01:34:23;13.35;;;7.72;;
46651;SDS011;32377;52.182;5.398;2024-02-26T01:36:49;13.55;;;8.35;;
46651;SDS011;32377;52.182;5.398;2024-02-26T01:39:15;10.75;;;8.60;;
46651;SDS011;32377;52.182;5.398;2024-02-26T01:41:40;10.90;;;7.95;;
46651;SDS011;32377;52.182;5.398;2024-02-26T01:44:06;12.25;;;8.07;;
46651;SDS011;32377;52.182;5.398;2024-02-26T01:46:32;14.07;;;8.35;;
46651;SDS011;32377;52.182;5.398;2024-02-26T01:48:59;12.15;;;7.90;;
46651;SDS011;32377;52.182;5.398;2024-02-26T01:51:25;11.20;;;8.23;;
46651;SDS011;32377;52.182;5.398;2024-02-26T01:53:51;10.55;;;7.50;;
46651;SDS011;32377;52.182;5.398;2024-02-26T01:56:17;11.32;;;7.57;;
46651;SDS011;32377;52.182;5.398;2024-02-26T01:58:44;11.90;;;7.78;;
46651;SDS011;32377;52.182;5.398;2024-02-26T02:01:10;10.32;;;7.70;;
46651;SDS011;32377;52.182;5.398;2024-02-26T02:03:37;14.23;;;8.65;;
46651;SDS011;32377;52.182;5.398;2024-02-26T02:06:03;11.60;;;8.85;;
46651;SDS011;32377;52.182;5.398;2024-02-26T02:08:30;12.55;;;8.30;;
46651;SDS011;32377;52.182;5.398;2024-02-26T02:10:56;14.65;;;8.10;;
46651;SDS011;32377;52.182;5.398;2024-02-26T02:13:21;15.73;;;8.65;;
46651;SDS011;32377;52.182;5.398;2024-02-26T02:15:47;14.07;;;8.98;;
46651;SDS011;32377;52.182;5.398;2024-02-26T02:18:13;15.80;;;8.18;;
46651;SDS011;32377;52.182;5.398;2024-02-26T02:20:38;12.98;;;8.88;;
46651;SDS011;32377;52.182;5.398;2024-02-26T02:23:04;12.35;;;8.57;;
46651;SDS011;32377;52.182;5.398;2024-02-26T02:25:30;13.05;;;8.77;;
46651;SDS011;32377;52.182;5.398;2024-02-26T02:27:55;12.02;;;8.32;;
46651;SDS011;32377;52.182;5.398;2024-02-26T02:30:23;14.23;;;9.00;;
46651;SDS011;32377;52.182;5.398;2024-02-26T02:32:50;13.10;;;8.73;;
46651;SDS011;32377;52.182;5.398;2024-02-26T02:35:16;13.27;;;9.27;;
46651;SDS011;32377;52.182;5.398;2024-02-26T02:37:42;13.85;;;9.48;;
46651;SDS011;32377;52.182;5.398;2024-02-26T02:40:07;21.25;;;9.50;;
46651;SDS011;32377;52.182;5.398;2024-02-26T02:42:33;12.98;;;9.18;;
46651;SDS011;32377;52.182;5.398;2024-02-26T02:44:58;14.15;;;9.82;;
46651;SDS011;32377;52.182;5.398;2024-02-26T02:47:24;14.48;;;9.88;;
46651;SDS011;32377;52.182;5.398;2024-02-26T02:49:50;13.68;;;8.98;;
46651;SDS011;32377;52.182;5.398;2024-02-26T02:52:15;17.17;;;9.88;;
46651;SDS011;32377;52.182;5.398;2024-02-26T02:54:41;14.32;;;9.98;;
46651;SDS011;32377;52.182;5.398;2024-02-26T02:57:07;13.98;;;9.85;;
46651;SDS011;32377;52.182;5.398;2024-02-26T02:59:33;15.18;;;9.80;;
46651;SDS011;32377;52.182;5.398;2024-02-26T03:02:00;17.38;;;9.35;;
46651;SDS011;32377;52.182;5.398;2024-02-26T03:04:26;14.15;;;9.07;;
46651;SDS011;32377;52.182;5.398;2024-02-26T03:06:51;16.05;;;9.98;;
46651;SDS011;32377;52.182;5.398;2024-02-26T03:09:17;13.85;;;9.70;;
46651;SDS011;32377;52.182;5.398;2024-02-26T03:11:42;14.73;;;9.82;;
46651;SDS011;32377;52.182;5.398;2024-02-26T03:14:08;16.58;;;9.65;;
46651;SDS011;32377;52.182;5.398;2024-02-26T03:16:34;13.57;;;9.70;;
46651;SDS011;32377;52.182;5.398;2024-02-26T03:19:00;15.63;;;9.93;;
46651;SDS011;32377;52.182;5.398;2024-02-26T03:21:26;16.33;;;10.77;;
46651;SDS011;32377;52.182;5.398;2024-02-26T03:23:52;14.63;;;9.82;;
46651;SDS011;32377;52.182;5.398;2024-02-26T03:26:18;17.48;;;10.68;;
46651;SDS011;32377;52.182;5.398;2024-02-26T03:28:44;16.55;;;10.40;;
46651;SDS011;32377;52.182;5.398;2024-02-26T03:31:09;17.20;;;9.73;;
46651;SDS011;32377;52.182;5.398;2024-02-26T03:33:35;14.75;;;9.68;;
46651;SDS011;32377;52.182;5.398;2024-02-26T03:36:01;15.20;;;10.70;;
46651;SDS011;32377;52.182;5.398;2024-02-26T03:38:28;14.73;;;10.32;;
46651;SDS011;32377;52.182;5.398;2024-02-26T03:40:54;15.73;;;10.10;;
46651;SDS011;32377;52.182;5.398;2024-02-26T03:43:19;16.17;;;9.50;;
46651;SDS011;32377;52.182;5.398;2024-02-26T03:45:45;14.60;;;9.60;;
46651;SDS011;32377;52.182;5.398;2024-02-26T03:48:10;16.27;;;9.77;;
46651;SDS011;32377;52.182;5.398;2024-02-26T03:50:36;16.88;;;10.20;;
46651;SDS011;32377;52.182;5.398;2024-02-26T03:53:01;15.07;;;9.88;;
46651;SDS011;32377;52.182;5.398;2024-02-26T03:55:27;15.70;;;10.30;;
46651;SDS011;32377;52.182;5.398;2024-02-26T03:57:52;15.38;;;9.98;;
46651;SDS011;32377;52.182;5.398;2024-02-26T04:00:18;13.15;;;9.90;;
46651;SDS011;32377;52.182;5.398;2024-02-26T04:02:44;18.23;;;10.48;;
46651;SDS011;32377;52.182;5.398;2024-02-26T04:05:11;15.88;;;9.60;;
46651;SDS011;32377;52.182;5.398;2024-02-26T04:07:38;18.40;;;9.43;;
46651;SDS011;32377;52.182;5.398;2024-02-26T04:10:08;20.77;;;10.65;;
46651;SDS011;32377;52.182;5.398;2024-02-26T04:12:40;19.90;;;10.27;;
46651;SDS011;32377;52.182;5.398;2024-02-26T04:15:10;18.27;;;10.57;;
46651;SDS011;32377;52.182;5.398;2024-02-26T04:17:36;17.23;;;9.82;;
46651;SDS011;32377;52.182;5.398;2024-02-26T04:20:02;14.60;;;9.95;;
46651;SDS011;32377;52.182;5.398;2024-02-26T04:22:30;15.75;;;10.57;;
46651;SDS011;32377;52.182;5.398;2024-02-26T04:24:57;18.73;;;10.52;;
46651;SDS011;32377;52.182;5.398;2024-02-26T04:27:22;16.58;;;10.18;;
46651;SDS011;32377;52.182;5.398;2024-02-26T04:29:48;18.65;;;11.02;;
46651;SDS011;32377;52.182;5.398;2024-02-26T04:32:13;18.67;;;11.02;;
46651;SDS011;32377;52.182;5.398;2024-02-26T04:34:39;19.98;;;11.32;;
46651;SDS011;32377;52.182;5.398;2024-02-26T04:37:04;22.35;;;12.82;;
46651;SDS011;32377;52.182;5.398;2024-02-26T04:39:30;18.98;;;11.50;;
46651;SDS011;32377;52.182;5.398;2024-02-26T04:41:55;19.75;;;11.88;;
46651;SDS011;32377;52.182;5.398;2024-02-26T04:44:21;16.75;;;11.25;;
46651;SDS011;32377;52.182;5.398;2024-02-26T04:46:47;21.65;;;11.68;;
46651;SDS011;32377;52.182;5.398;2024-02-26T04:49:12;18.23;;;11.52;;
46651;SDS011;32377;52.182;5.398;2024-02-26T04:51:38;19.55;;;12.48;;
46651;SDS011;32377;52.182;5.398;2024-02-26T04:54:03;20.50;;;12.52;;
46651;SDS011;32377;52.182;5.398;2024-02-26T04:59:20;16.70;;;11.18;;
46651;SDS011;32377;52.182;5.398;2024-02-26T05:01:46;27.30;;;12.48;;
46651;SDS011;32377;52.182;5.398;2024-02-26T05:04:12;20.52;;;12.45;;
46651;SDS011;32377;52.182;5.398;2024-02-26T05:06:38;20.35;;;13.75;;
46651;SDS011;32377;52.182;5.398;2024-02-26T05:09:03;22.13;;;13.52;;
46651;SDS011;32377;52.182;5.398;2024-02-26T05:11:29;18.83;;;12.30;;
46651;SDS011;32377;52.182;5.398;2024-02-26T05:13:56;20.33;;;12.55;;
46651;SDS011;32377;52.182;5.398;2024-02-26T05:16:22;20.10;;;12.48;;
46651;SDS011;32377;52.182;5.398;2024-02-26T05:18:49;20.83;;;12.73;;
46651;SDS011;32377;52.182;5.398;2024-02-26T05:21:15;19.85;;;12.93;;
46651;SDS011;32377;52.182;5.398;2024-02-26T05:23:41;19.40;;;11.95;;
46651;SDS011;32377;52.182;5.398;2024-02-26T05:26:08;18.73;;;12.35;;
46651;SDS011;32377;52.182;5.398;2024-02-26T05:28:34;22.02;;;13.65;;
46651;SDS011;32377;52.182;5.398;2024-02-26T05:31:02;22.35;;;12.73;;
46651;SDS011;32377;52.182;5.398;2024-02-26T05:33:28;19.58;;;12.48;;
46651;SDS011;32377;52.182;5.398;2024-02-26T05:35:54;19.30;;;11.82;;
46651;SDS011;32377;52.182;5.398;2024-02-26T05:38:20;23.45;;;12.85;;
46651;SDS011;32377;52.182;5.398;2024-02-26T05:40:46;21.08;;;13.07;;
46651;SDS011;32377;52.182;5.398;2024-02-26T05:43:12;20.63;;;13.23;;
46651;SDS011;32377;52.182;5.398;2024-02-26T05:45:40;24.95;;;14.23;;
46651;SDS011;32377;52.182;5.398;2024-02-26T05:48:06;22.25;;;12.88;;
46651;SDS011;32377;52.182;5.398;2024-02-26T05:50:32;20.75;;;12.77;;
46651;SDS011;32377;52.182;5.398;2024-02-26T05:52:58;21.35;;;13.20;;
46651;SDS011;32377;52.182;5.398;2024-02-26T05:55:25;25.70;;;14.32;;
46651;SDS011;32377;52.182;5.398;2024-02-26T05:57:51;21.33;;;13.38;;
46651;SDS011;32377;52.182;5.398;2024-02-26T06:00:17;20.38;;;13.02;;
46651;SDS011;32377;52.182;5.398;2024-02-26T06:02:43;21.40;;;13.68;;
46651;SDS011;32377;52.182;5.398;2024-02-26T06:05:09;23.02;;;14.20;;
46651;SDS011;32377;52.182;5.398;2024-02-26T06:07:35;25.70;;;13.70;;
46651;SDS011;32377;52.182;5.398;2024-02-26T06:10:02;22.85;;;13.68;;
46651;SDS011;32377;52.182;5.398;2024-02-26T06:12:29;25.45;;;14.60;;
46651;SDS011;32377;52.182;5.398;2024-02-26T06:14:55;23.38;;;14.13;;
46651;SDS011;32377;52.182;5.398;2024-02-26T06:17:22;27.23;;;14.38;;
46651;SDS011;32377;52.182;5.398;2024-02-26T06:19:48;27.35;;;15.70;;
46651;SDS011;32377;52.182;5.398;2024-02-26T06:22:14;24.58;;;13.43;;
46651;SDS011;32377;52.182;5.398;2024-02-26T06:24:40;25.80;;;14.40;;
46651;SDS011;32377;52.182;5.398;2024-02-26T06:27:06;26.90;;;14.55;;
46651;SDS011;32377;52.182;5.398;2024-02-26T06:29:33;26.58;;;15.25;;
46651;SDS011;32377;52.182;5.398;2024-02-26T06:31:59;27.48;;;15.10;;
46651;SDS011;32377;52.182;5.398;2024-02-26T06:34:25;30.25;;;16.48;;
46651;SDS011;32377;52.182;5.398;2024-02-26T06:36:51;30.48;;;15.82;;
46651;SDS011;32377;52.182;5.398;2024-02-26T06:39:17;29.10;;;15.80;;
46651;SDS011;32377;52.182;5.398;2024-02-26T06:41:44;30.83;;;16.95;;
46651;SDS011;32377;52.182;5.398;2024-02-26T06:44:11;30.42;;;16.48;;
46651;SDS011;32377;52.182;5.398;2024-02-26T06:46:37;35.50;;;18.60;;
46651;SDS011;32377;52.182;5.398;2024-02-26T06:49:04;35.22;;;18.02;;
46651;SDS011;32377;52.182;5.398;2024-02-26T06:51:30;37.28;;;19.92;;
46651;SDS011;32377;52.182;5.398;2024-02-26T06:53:56;40.97;;;19.83;;
46651;SDS011;32377;52.182;5.398;2024-02-26T06:56:22;39.95;;;21.83;;
46651;SDS011;32377;52.182;5.398;2024-02-26T06:58:48;43.47;;;22.80;;
46651;SDS011;32377;52.182;5.398;2024-02-26T07:01:14;45.13;;;21.38;;
46651;SDS011;32377;52.182;5.398;2024-02-26T07:03:40;47.20;;;23.35;;
46651;SDS011;32377;52.182;5.398;2024-02-26T07:06:06;47.30;;;24.10;;
46651;SDS011;32377;52.182;5.398;2024-02-26T07:08:33;47.65;;;25.73;;
46651;SDS011;32377;52.182;5.398;2024-02-26T07:10:59;52.63;;;26.17;;
46651;SDS011;32377;52.182;5.398;2024-02-26T07:13:25;49.13;;;25.48;;
46651;SDS011;32377;52.182;5.398;2024-02-26T07:15:51;48.22;;;25.38;;
46651;SDS011;32377;52.182;5.398;2024-02-26T07:18:17;51.65;;;27.23;;
46651;SDS011;32377;52.182;5.398;2024-02-26T07:20:43;52.78;;;26.70;;
46651;SDS011;32377;52.182;5.398;2024-02-26T07:23:09;54.03;;;26.17;;
46651;SDS011;32377;52.182;5.398;2024-02-26T07:25:36;53.20;;;28.65;;
46651;SDS011;32377;52.182;5.398;2024-02-26T07:28:02;53.30;;;27.13;;
46651;SDS011;32377;52.182;5.398;2024-02-26T07:30:29;54.40;;;28.05;;
46651;SDS011;32377;52.182;5.398;2024-02-26T07:32:55;52.15;;;27.35;;
46651;SDS011;32377;52.182;5.398;2024-02-26T07:35:21;52.88;;;27.02;;
46651;SDS011;32377;52.182;5.398;2024-02-26T07:37:48;52.83;;;26.95;;
46651;SDS011;32377;52.182;5.398;2024-02-26T07:40:15;52.05;;;26.77;;
46651;SDS011;32377;52.182;5.398;2024-02-26T07:42:41;50.67;;;26.08;;
46651;SDS011;32377;52.182;5.398;2024-02-26T07:45:07;50.05;;;25.23;;
46651;SDS011;32377;52.182;5.398;2024-02-26T07:47:33;52.45;;;26.38;;
46651;SDS011;32377;52.182;5.398;2024-02-26T07:50:00;43.15;;;24.58;;
46651;SDS011;32377;52.182;5.398;2024-02-26T07:52:26;41.13;;;22.52;;
46651;SDS011;32377;52.182;5.398;2024-02-26T07:54:52;42.95;;;22.23;;
46651;SDS011;32377;52.182;5.398;2024-02-26T07:57:18;39.22;;;21.25;;
46651;SDS011;32377;52.182;5.398;2024-02-26T07:59:46;38.63;;;20.38;;
46651;SDS011;32377;52.182;5.398;2024-02-26T08:02:14;34.30;;;20.23;;
46651;SDS011;32377;52.182;5.398;2024-02-26T08:04:40;32.25;;;18.70;;
46651;SDS011;32377;52.182;5.398;2024-02-26T08:07:06;32.70;;;18.00;;
46651;SDS011;32377;52.182;5.398;2024-02-26T08:09:32;27.67;;;16.92;;
46651;SDS011;32377;52.182;5.398;2024-02-26T08:11:58;29.65;;;16.45;;
46651;SDS011;32377;52.182;5.398;2024-02-26T08:14:24;33.53;;;18.35;;
46651;SDS011;32377;52.182;5.398;2024-02-26T08:16:50;26.55;;;15.60;;
46651;SDS011;32377;52.182;5.398;2024-02-26T08:19:16;23.55;;;14.55;;
46651;SDS011;32377;52.182;5.398;2024-02-26T08:21:42;25.58;;;15.77;;
46651;SDS011;32377;52.182;5.398;2024-02-26T08:24:08;25.15;;;14.45;;
46651;SDS011;32377;52.182;5.398;2024-02-26T08:26:34;25.05;;;14.15;;
46651;SDS011;32377;52.182;5.398;2024-02-26T08:29:00;25.08;;;15.18;;
46651;SDS011;32377;52.182;5.398;2024-02-26T08:31:26;25.80;;;15.20;;
46651;SDS011;32377;52.182;5.398;2024-02-26T08:33:53;24.88;;;13.65;;
46651;SDS011;32377;52.182;5.398;2024-02-26T08:36:19;22.98;;;13.63;;
46651;SDS011;32377;52.182;5.398;2024-02-26T08:38:45;22.38;;;13.90;;
46651;SDS011;32377;52.182;5.398;2024-02-26T08:41:11;23.13;;;13.70;;
46651;SDS011;32377;52.182;5.398;2024-02-26T08:43:38;24.27;;;13.65;;
46651;SDS011;32377;52.182;5.398;2024-02-26T08:46:04;20.52;;;12.70;;
46651;SDS011;32377;52.182;5.398;2024-02-26T08:48:30;22.83;;;13.13;;
46651;SDS011;32377;52.182;5.398;2024-02-26T08:50:56;22.80;;;13.13;;
46651;SDS011;32377;52.182;5.398;2024-02-26T08:53:22;20.40;;;12.52;;
46651;SDS011;32377;52.182;5.398;2024-02-26T08:55:48;23.98;;;13.30;;
46651;SDS011;32377;52.182;5.398;2024-02-26T08:58:14;22.42;;;12.55;;
46651;SDS011;32377;52.182;5.398;2024-02-26T09:00:40;22.25;;;12.32;;
46651;SDS011;32377;52.182;5.398;2024-02-26T09:03:06;21.13;;;11.63;;
46651;SDS011;32377;52.182;5.398;2024-02-26T09:05:32;18.23;;;10.25;;
46651;SDS011;32377;52.182;5.398;2024-02-26T09:07:58;17.38;;;11.13;;
46651;SDS011;32377;52.182;5.398;2024-02-26T09:10:24;17.90;;;10.73;;
46651;SDS011;32377;52.182;5.398;2024-02-26T09:12:50;16.88;;;10.98;;
46651;SDS011;32377;52.182;5.398;2024-02-26T09:15:16;16.23;;;10.57;;
46651;SDS011;32377;52.182;5.398;2024-02-26T09:17:42;19.52;;;10.73;;
46651;SDS011;32377;52.182;5.398;2024-02-26T09:20:09;15.80;;;9.82;;
46651;SDS011;32377;52.182;5.398;2024-02-26T09:22:35;16.52;;;9.32;;
46651;SDS011;32377;52.182;5.398;2024-02-26T09:25:03;18.85;;;10.10;;
46651;SDS011;32377;52.182;5.398;2024-02-26T09:27:29;19.08;;;10.30;;
46651;SDS011;32377;52.182;5.398;2024-02-26T09:29:55;15.73;;;9.65;;
46651;SDS011;32377;52.182;5.398;2024-02-26T09:32:21;15.75;;;10.25;;
46651;SDS011;32377;52.182;5.398;2024-02-26T09:34:49;18.50;;;10.05;;
46651;SDS011;32377;52.182;5.398;2024-02-26T09:37:15;16.55;;;9.73;;
46651;SDS011;32377;52.182;5.398;2024-02-26T09:39:41;15.07;;;9.50;;
46651;SDS011;32377;52.182;5.398;2024-02-26T09:42:08;15.77;;;9.25;;
46651;SDS011;32377;52.182;5.398;2024-02-26T09:44:36;16.23;;;9.32;;
46651;SDS011;32377;52.182;5.398;2024-02-26T09:47:03;14.43;;;8.65;;
46651;SDS011;32377;52.182;5.398;2024-02-26T09:49:31;14.93;;;9.23;;
46651;SDS011;32377;52.182;5.398;2024-02-26T09:51:57;16.70;;;9.52;;
46651;SDS011;32377;52.182;5.398;2024-02-26T09:54:23;15.60;;;9.35;;
46651;SDS011;32377;52.182;5.398;2024-02-26T09:56:51;15.48;;;9.23;;
46651;SDS011;32377;52.182;5.398;2024-02-26T09:59:19;16.38;;;10.32;;
46651;SDS011;32377;52.182;5.398;2024-02-26T10:01:45;15.00;;;8.85;;
46651;SDS011;32377;52.182;5.398;2024-02-26T10:04:11;14.98;;;9.35;;
46651;SDS011;32377;52.182;5.398;2024-02-26T10:06:38;15.57;;;9.02;;
46651;SDS011;32377;52.182;5.398;2024-02-26T10:09:05;16.13;;;8.73;;
46651;SDS011;32377;52.182;5.398;2024-02-26T10:11:32;14.02;;;8.95;;
46651;SDS011;32377;52.182;5.398;2024-02-26T10:13:58;14.57;;;9.00;;
46651;SDS011;32377;52.182;5.398;2024-02-26T10:16:25;15.45;;;9.50;;
46651;SDS011;32377;52.182;5.398;2024-02-26T10:18:52;16.45;;;9.30;;
46651;SDS011;32377;52.182;5.398;2024-02-26T10:21:21;17.15;;;9.43;;
46651;SDS011;32377;52.182;5.398;2024-02-26T10:23:47;15.63;;;9.20;;
46651;SDS011;32377;52.182;5.398;2024-02-26T10:26:14;14.18;;;8.98;;
46651;SDS011;32377;52.182;5.398;2024-02-26T10:28:43;14.05;;;9.02;;
46651;SDS011;32377;52.182;5.398;2024-02-26T10:31:10;14.98;;;9.18;;
46651;SDS011;32377;52.182;5.398;2024-02-26T10:33:37;14.25;;;8.85;;
46651;SDS011;32377;52.182;5.398;2024-02-26T10:36:07;16.60;;;9.02;;
46651;SDS011;32377;52.182;5.398;2024-02-26T10:38:33;17.90;;;9.90;;
46651;SDS011;32377;52.182;5.398;2024-02-26T10:41:01;15.23;;;9.20;;
46651;SDS011;32377;52.182;5.398;2024-02-26T10:43:27;15.00;;;8.57;;
46651;SDS011;32377;52.182;5.398;2024-02-26T10:45:56;14.43;;;9.57;;
46651;SDS011;32377;52.182;5.398;2024-02-26T10:48:22;15.55;;;8.80;;
46651;SDS011;32377;52.182;5.398;2024-02-26T10:50:49;12.43;;;8.57;;
46651;SDS011;32377;52.182;5.398;2024-02-26T10:53:25;13.55;;;8.50;;
46651;SDS011;32377;52.182;5.398;2024-02-26T10:59:22;15.52;;;8.55;;
46651;SDS011;32377;52.182;5.398;2024-02-26T11:01:48;15.43;;;8.63;;
46651;SDS011;32377;52.182;5.398;2024-02-26T11:04:15;14.68;;;9.02;;
46651;SDS011;32377;52.182;5.398;2024-02-26T11:06:43;12.98;;;8.23;;
46651;SDS011;32377;52.182;5.398;2024-02-26T11:09:11;16.45;;;9.15;;
46651;SDS011;32377;52.182;5.398;2024-02-26T11:11:38;16.52;;;8.93;;
46651;SDS011;32377;52.182;5.398;2024-02-26T11:14:05;12.18;;;8.02;;
46651;SDS011;32377;52.182;5.398;2024-02-26T11:16:34;13.43;;;9.00;;
46651;SDS011;32377;52.182;5.398;2024-02-26T11:19:01;17.45;;;9.50;;
46651;SDS011;32377;52.182;5.398;2024-02-26T11:21:28;14.07;;;9.63;;
46651;SDS011;32377;52.182;5.398;2024-02-26T11:24:08;16.13;;;9.02;;
46651;SDS011;32377;52.182;5.398;2024-02-26T11:26:38;17.35;;;9.93;;
46651;SDS011;32377;52.182;5.398;2024-02-26T11:29:13;13.27;;;8.70;;
46651;SDS011;32377;52.182;5.398;2024-02-26T11:31:41;13.57;;;8.48;;
46651;SDS011;32377;52.182;5.398;2024-02-26T11:34:07;14.30;;;9.82;;
46651;SDS011;32377;52.182;5.398;2024-02-26T11:36:34;13.23;;;8.95;;
46651;SDS011;32377;52.182;5.398;2024-02-26T11:39:02;13.52;;;8.50;;
46651;SDS011;32377;52.182;5.398;2024-02-26T11:41:29;13.18;;;8.57;;
46651;SDS011;32377;52.182;5.398;2024-02-26T11:43:58;14.85;;;9.18;;
46651;SDS011;32377;52.182;5.398;2024-02-26T11:48:59;15.02;;;8.80;;
46651;SDS011;32377;52.182;5.398;2024-02-26T11:51:26;13.52;;;8.98;;
46651;SDS011;32377;52.182;5.398;2024-02-26T11:53:56;18.77;;;9.88;;
46651;SDS011;32377;52.182;5.398;2024-02-26T11:56:22;16.48;;;9.60;;
46651;SDS011;32377;52.182;5.398;2024-02-26T11:58:53;17.80;;;9.13;;
46651;SDS011;32377;52.182;5.398;2024-02-26T12:01:37;12.75;;;8.30;;
46651;SDS011;32377;52.182;5.398;2024-02-26T12:04:14;15.23;;;9.57;;
46651;SDS011;32377;52.182;5.398;2024-02-26T12:09:13;12.43;;;8.40;;
46651;SDS011;32377;52.182;5.398;2024-02-26T12:11:55;12.32;;;8.63;;
46651;SDS011;32377;52.182;5.398;2024-02-26T12:14:24;13.63;;;8.55;;
46651;SDS011;32377;52.182;5.398;2024-02-26T12:16:51;17.45;;;9.98;;
46651;SDS011;32377;52.182;5.398;2024-02-26T12:19:17;12.73;;;8.52;;
46651;SDS011;32377;52.182;5.398;2024-02-26T12:21:43;14.68;;;9.48;;
46651;SDS011;32377;52.182;5.398;2024-02-26T12:24:10;14.15;;;8.85;;
46651;SDS011;32377;52.182;5.398;2024-02-26T12:26:37;15.82;;;9.05;;
46651;SDS011;32377;52.182;5.398;2024-02-26T12:29:03;13.32;;;7.93;;
46651;SDS011;32377;52.182;5.398;2024-02-26T12:31:28;14.10;;;8.75;;
46651;SDS011;32377;52.182;5.398;2024-02-26T12:33:54;14.50;;;8.80;;
46651;SDS011;32377;52.182;5.398;2024-02-26T12:36:20;13.63;;;8.85;;
46651;SDS011;32377;52.182;5.398;2024-02-26T12:38:48;12.93;;;9.05;;
46651;SDS011;32377;52.182;5.398;2024-02-26T12:41:15;11.73;;;7.90;;
46651;SDS011;32377;52.182;5.398;2024-02-26T12:43:41;12.23;;;8.15;;
46651;SDS011;32377;52.182;5.398;2024-02-26T12:46:07;12.38;;;8.13;;
46651;SDS011;32377;52.182;5.398;2024-02-26T12:48:32;13.18;;;8.57;;
46651;SDS011;32377;52.182;5.398;2024-02-26T12:50:58;13.25;;;8.00;;
46651;SDS011;32377;52.182;5.398;2024-02-26T12:53:24;18.65;;;9.48;;
46651;SDS011;32377;52.182;5.398;2024-02-26T12:55:52;12.18;;;7.63;;
46651;SDS011;32377;52.182;5.398;2024-02-26T12:58:19;11.20;;;7.50;;
46651;SDS011;32377;52.182;5.398;2024-02-26T13:00:49;14.38;;;8.52;;
46651;SDS011;32377;52.182;5.398;2024-02-26T13:03:16;13.82;;;7.78;;
46651;SDS011;32377;52.182;5.398;2024-02-26T13:05:42;11.43;;;7.53;;
46651;SDS011;32377;52.182;5.398;2024-02-26T13:08:08;11.88;;;7.97;;
46651;SDS011;32377;52.182;5.398;2024-02-26T13:10:34;13.88;;;8.50;;
46651;SDS011;32377;52.182;5.398;2024-02-26T13:13:01;12.52;;;8.52;;
46651;SDS011;32377;52.182;5.398;2024-02-26T13:15:27;12.30;;;7.70;;
46651;SDS011;32377;52.182;5.398;2024-02-26T13:17:53;10.82;;;7.47;;
46651;SDS011;32377;52.182;5.398;2024-02-26T13:20:27;12.38;;;8.15;;
46651;SDS011;32377;52.182;5.398;2024-02-26T13:23:03;14.57;;;8.27;;
46651;SDS011;32377;52.182;5.398;2024-02-26T13:25:31;14.68;;;8.35;;
46651;SDS011;32377;52.182;5.398;2024-02-26T13:28:12;11.95;;;7.30;;
46651;SDS011;32377;52.182;5.398;2024-02-26T13:30:53;14.73;;;7.40;;
46651;SDS011;32377;52.182;5.398;2024-02-26T13:33:24;13.23;;;8.35;;
46651;SDS011;32377;52.182;5.398;2024-02-26T13:35:51;11.88;;;7.40;;
46651;SDS011;32377;52.182;5.398;2024-02-26T13:38:17;11.77;;;7.80;;
46651;SDS011;32377;52.182;5.398;2024-02-26T13:40:43;11.27;;;7.30;;
46651;SDS011;32377;52.182;5.398;2024-02-26T13:43:09;10.57;;;7.03;;
46651;SDS011;32377;52.182;5.398;2024-02-26T13:45:35;11.63;;;7.20;;
46651;SDS011;32377;52.182;5.398;2024-02-26T13:48:02;12.50;;;7.85;;
46651;SDS011;32377;52.182;5.398;2024-02-26T13:50:29;9.60;;;6.38;;
46651;SDS011;32377;52.182;5.398;2024-02-26T13:52:55;10.68;;;6.60;;
46651;SDS011;32377;52.182;5.398;2024-02-26T13:55:22;9.63;;;6.43;;
46651;SDS011;32377;52.182;5.398;2024-02-26T13:57:51;8.93;;;6.47;;
46651;SDS011;32377;52.182;5.398;2024-02-26T14:00:18;10.18;;;6.43;;
46651;SDS011;32377;52.182;5.398;2024-02-26T14:02:44;11.15;;;6.53;;
46651;SDS011;32377;52.182;5.398;2024-02-26T14:05:10;10.27;;;6.45;;
46651;SDS011;32377;52.182;5.398;2024-02-26T14:07:36;10.20;;;6.43;;
46651;SDS011;32377;52.182;5.398;2024-02-26T14:10:02;8.60;;;6.40;;
46651;SDS011;32377;52.182;5.398;2024-02-26T14:12:28;10.73;;;6.30;;
46651;SDS011;32377;52.182;5.398;2024-02-26T14:14:53;7.70;;;6.00;;
46651;SDS011;32377;52.182;5.398;2024-02-26T14:17:20;9.98;;;5.75;;
46651;SDS011;32377;52.182;5.398;2024-02-26T14:19:46;10.55;;;6.47;;
46651;SDS011;32377;52.182;5.398;2024-02-26T14:22:13;8.70;;;6.20;;
46651;SDS011;32377;52.182;5.398;2024-02-26T14:24:39;9.32;;;5.95;;
46651;SDS011;32377;52.182;5.398;2024-02-26T14:27:06;7.90;;;5.70;;
46651;SDS011;32377;52.182;5.398;2024-02-26T14:29:33;12.55;;;5.97;;
46651;SDS011;32377;52.182;5.398;2024-02-26T14:31:59;8.40;;;5.82;;
46651;SDS011;32377;52.182;5.398;2024-02-26T14:34:26;8.57;;;5.88;;
46651;SDS011;32377;52.182;5.398;2024-02-26T14:36:52;7.50;;;5.70;;
46651;SDS011;32377;52.182;5.398;2024-02-26T14:39:18;9.35;;;5.45;;